Terminal Aerodrome Forecast
Issued by NWS

Home | Current Version | Previous Version | Text Only | Print | Product List | Glossary On
Versions: 1 2 3 4 5 6 7 8 9 10 11 12 13
000
FTUS46 KSEW 262332
TAFBLI
TAF
KBLI 262332Z 2700/2724 17009G17KT P6SM VCSH OVC050
     FM270400 17008KT P6SM VCSH OVC040
     FM270700 17008KT P6SM VCSH OVC035
     FM271100 17006KT P6SM VCSH OVC030
     FM271200 17007KT P6SM VCSH OVC025
     FM271400 17010G17KT P6SM VCSH OVC035
     FM272100 16010KT P6SM VCSH BKN035=

USA.gov is the U.S. government's official web portal to all federal, state and local government web resources and services.